sensor_id;sensor_type;location;lat;lon;timestamp;pressure;altitude;pressure_sealevel;temperature;humidity
10462;BME280;5278;42.656;23.374;2023-04-10T00:01:14;94761.53;;;9.03;74.99
10462;BME280;5278;42.656;23.374;2023-04-10T00:03:41;94728.97;;;8.77;73.16
10462;BME280;5278;42.656;23.374;2023-04-10T00:06:08;94722.84;;;8.70;71.76
10462;BME280;5278;42.656;23.374;2023-04-10T00:08:35;94728.00;;;8.70;70.50
10462;BME280;5278;42.656;23.374;2023-04-10T00:11:03;94756.19;;;8.97;69.13
10462;BME280;5278;42.656;23.374;2023-04-10T00:13:31;94762.53;;;8.94;68.08
10462;BME280;5278;42.656;23.374;2023-04-10T00:15:58;94762.66;;;8.93;67.62
10462;BME280;5278;42.656;23.374;2023-04-10T00:18:25;94764.63;;;8.91;66.66
10462;BME280;5278;42.656;23.374;2023-04-10T00:20:53;94757.50;;;8.85;65.82
10462;BME280;5278;42.656;23.374;2023-04-10T00:23:20;94748.09;;;8.76;65.54
10462;BME280;5278;42.656;23.374;2023-04-10T00:25:46;94750.50;;;8.77;65.31
10462;BME280;5278;42.656;23.374;2023-04-10T00:28:15;94753.25;;;8.68;63.61
10462;BME280;5278;42.656;23.374;2023-04-10T00:30:41;94742.75;;;8.61;63.69
10462;BME280;5278;42.656;23.374;2023-04-10T00:33:08;94741.41;;;8.57;62.40
10462;BME280;5278;42.656;23.374;2023-04-10T00:35:35;94748.56;;;8.63;62.18
10462;BME280;5278;42.656;23.374;2023-04-10T00:38:02;94740.63;;;8.73;61.96
10462;BME280;5278;42.656;23.374;2023-04-10T00:40:29;94746.31;;;8.76;61.29
10462;BME280;5278;42.656;23.374;2023-04-10T00:42:56;94735.97;;;8.76;61.39
10462;BME280;5278;42.656;23.374;2023-04-10T00:45:24;94738.41;;;8.86;61.35
10462;BME280;5278;42.656;23.374;2023-04-10T00:47:51;94735.00;;;8.85;61.68
10462;BME280;5278;42.656;23.374;2023-04-10T00:50:18;94737.25;;;8.88;61.42
10462;BME280;5278;42.656;23.374;2023-04-10T00:52:45;94741.31;;;8.91;61.74
10462;BME280;5278;42.656;23.374;2023-04-10T00:55:13;94725.78;;;8.91;62.33
10462;BME280;5278;42.656;23.374;2023-04-10T00:57:43;94731.91;;;8.98;62.84
10462;BME280;5278;42.656;23.374;2023-04-10T01:00:11;94725.75;;;8.99;63.77
10462;BME280;5278;42.656;23.374;2023-04-10T01:02:39;94729.16;;;8.99;64.50
10462;BME280;5278;42.656;23.374;2023-04-10T01:05:07;94634.13;;;8.43;64.86
10462;BME280;5278;42.656;23.374;2023-04-10T01:07:48;94718.28;;;9.12;65.34
10462;BME280;5278;42.656;23.374;2023-04-10T01:10:22;94710.84;;;9.17;66.38
10462;BME280;5278;42.656;23.374;2023-04-10T01:12:58;94715.38;;;9.23;68.42
10462;BME280;5278;42.656;23.374;2023-04-10T01:15:37;94710.19;;;9.23;69.36
10462;BME280;5278;42.656;23.374;2023-04-10T01:18:15;94622.16;;;8.75;70.96
10462;BME280;5278;42.656;23.374;2023-04-10T01:20:45;94707.94;;;9.20;72.49
10462;BME280;5278;42.656;23.374;2023-04-10T01:23:37;94706.63;;;9.24;72.77
10462;BME280;5278;42.656;23.374;2023-04-10T01:26:09;94701.59;;;9.23;73.10
10462;BME280;5278;42.656;23.374;2023-04-10T01:28:53;94709.53;;;9.29;74.03
10462;BME280;5278;42.656;23.374;2023-04-10T01:31:31;94705.97;;;9.30;74.10
10462;BME280;5278;42.656;23.374;2023-04-10T01:34:06;94708.38;;;9.32;73.32
10462;BME280;5278;42.656;23.374;2023-04-10T01:36:37;94704.34;;;9.29;72.51
10462;BME280;5278;42.656;23.374;2023-04-10T01:39:07;94698.84;;;9.32;70.56
10462;BME280;5278;42.656;23.374;2023-04-10T01:41:36;94702.75;;;9.36;68.62
10462;BME280;5278;42.656;23.374;2023-04-10T01:44:07;94688.50;;;9.24;68.20
10462;BME280;5278;42.656;23.374;2023-04-10T01:46:36;94650.44;;;9.08;67.81
10462;BME280;5278;42.656;23.374;2023-04-10T01:49:05;94710.19;;;9.39;67.96
10462;BME280;5278;42.656;23.374;2023-04-10T01:51:33;94717.13;;;9.39;68.00
10462;BME280;5278;42.656;23.374;2023-04-10T01:54:01;94711.16;;;9.38;68.28
10462;BME280;5278;42.656;23.374;2023-04-10T01:56:29;94717.13;;;9.39;68.22
10462;BME280;5278;42.656;23.374;2023-04-10T01:58:56;94710.81;;;9.33;68.64
10462;BME280;5278;42.656;23.374;2023-04-10T02:01:24;94707.44;;;9.25;69.18
10462;BME280;5278;42.656;23.374;2023-04-10T02:03:52;94713.25;;;9.27;69.33
10462;BME280;5278;42.656;23.374;2023-04-10T02:06:27;94683.00;;;9.19;69.54
10462;BME280;5278;42.656;23.374;2023-04-10T02:09:00;94704.66;;;9.34;69.36
10462;BME280;5278;42.656;23.374;2023-04-10T02:11:38;94700.78;;;9.38;69.54
10462;BME280;5278;42.656;23.374;2023-04-10T02:14:10;94683.78;;;9.36;69.47
10462;BME280;5278;42.656;23.374;2023-04-10T02:16:39;94694.47;;;9.41;70.30
10462;BME280;5278;42.656;23.374;2023-04-10T02:19:07;94687.47;;;9.41;70.53
10462;BME280;5278;42.656;23.374;2023-04-10T02:21:35;94683.41;;;9.47;70.47
10462;BME280;5278;42.656;23.374;2023-04-10T02:24:04;94683.91;;;9.50;70.25
10462;BME280;5278;42.656;23.374;2023-04-10T02:26:43;94677.91;;;9.50;70.25
10462;BME280;5278;42.656;23.374;2023-04-10T02:29:10;94683.25;;;9.48;69.63
10462;BME280;5278;42.656;23.374;2023-04-10T02:31:39;94675.13;;;9.51;69.90
10462;BME280;5278;42.656;23.374;2023-04-10T02:34:06;94680.31;;;9.60;69.32
10462;BME280;5278;42.656;23.374;2023-04-10T02:36:33;94659.88;;;9.57;67.47
10462;BME280;5278;42.656;23.374;2023-04-10T02:39:00;94664.91;;;9.58;68.26
10462;BME280;5278;42.656;23.374;2023-04-10T02:41:28;94658.59;;;9.52;67.37
10462;BME280;5278;42.656;23.374;2023-04-10T02:43:55;94657.94;;;9.59;67.46
10462;BME280;5278;42.656;23.374;2023-04-10T02:46:22;94651.63;;;9.53;67.21
10462;BME280;5278;42.656;23.374;2023-04-10T02:48:50;94654.22;;;9.53;67.28
10462;BME280;5278;42.656;23.374;2023-04-10T02:51:17;94645.31;;;9.47;66.80
10462;BME280;5278;42.656;23.374;2023-04-10T02:53:44;94647.28;;;9.45;67.13
10462;BME280;5278;42.656;23.374;2023-04-10T02:56:11;94652.94;;;9.49;67.29
10462;BME280;5278;42.656;23.374;2023-04-10T02:58:38;94638.03;;;9.43;67.02
10462;BME280;5278;42.656;23.374;2023-04-10T03:01:09;94588.78;;;8.96;67.27
10462;BME280;5278;42.656;23.374;2023-04-10T03:03:36;94648.28;;;9.36;67.54
10462;BME280;5278;42.656;23.374;2023-04-10T03:06:05;94657.34;;;9.32;67.78
10462;BME280;5278;42.656;23.374;2023-04-10T03:08:32;94652.66;;;9.36;67.98
10462;BME280;5278;42.656;23.374;2023-04-10T03:10:59;94658.34;;;9.31;68.68
10462;BME280;5278;42.656;23.374;2023-04-10T03:13:26;94652.66;;;9.28;69.10
10462;BME280;5278;42.656;23.374;2023-04-10T03:15:53;94652.84;;;9.26;69.19
10462;BME280;5278;42.656;23.374;2023-04-10T03:18:20;94655.59;;;9.25;70.54
10462;BME280;5278;42.656;23.374;2023-04-10T03:20:47;94650.41;;;9.25;70.55
10462;BME280;5278;42.656;23.374;2023-04-10T03:23:16;94655.28;;;9.20;70.35
10462;BME280;5278;42.656;23.374;2023-04-10T03:25:42;94654.63;;;9.18;71.10
10462;BME280;5278;42.656;23.374;2023-04-10T03:28:09;94647.34;;;9.13;71.14
10462;BME280;5278;42.656;23.374;2023-04-10T03:30:36;94654.81;;;9.16;71.87
10462;BME280;5278;42.656;23.374;2023-04-10T03:33:03;94657.41;;;9.16;71.82
10462;BME280;5278;42.656;23.374;2023-04-10T03:35:30;94658.06;;;9.10;71.78
10462;BME280;5278;42.656;23.374;2023-04-10T03:37:57;94647.06;;;9.00;72.41
10462;BME280;5278;42.656;23.374;2023-04-10T03:40:25;94653.88;;;9.01;72.87
10462;BME280;5278;42.656;23.374;2023-04-10T03:42:52;94653.88;;;9.01;72.62
10462;BME280;5278;42.656;23.374;2023-04-10T03:45:19;94661.31;;;9.04;72.85
10462;BME280;5278;42.656;23.374;2023-04-10T03:47:46;94670.38;;;9.00;73.15
10462;BME280;5278;42.656;23.374;2023-04-10T03:50:13;94669.72;;;8.98;72.84
10462;BME280;5278;42.656;23.374;2023-04-10T03:52:40;94654.66;;;8.93;73.49
10462;BME280;5278;42.656;23.374;2023-04-10T03:55:07;94671.84;;;8.94;73.39
10462;BME280;5278;42.656;23.374;2023-04-10T03:57:35;94676.53;;;8.99;73.52
10462;BME280;5278;42.656;23.374;2023-04-10T04:00:02;94679.31;;;8.81;74.00
10462;BME280;5278;42.656;23.374;2023-04-10T04:02:30;94680.75;;;8.76;74.37
10462;BME280;5278;42.656;23.374;2023-04-10T04:04:57;94688.34;;;8.77;74.77
10462;BME280;5278;42.656;23.374;2023-04-10T04:07:24;94676.41;;;8.76;74.80
10462;BME280;5278;42.656;23.374;2023-04-10T04:09:50;94682.88;;;8.80;74.60
10462;BME280;5278;42.656;23.374;2023-04-10T04:12:17;94689.00;;;8.79;75.09
10462;BME280;5278;42.656;23.374;2023-04-10T04:14:45;94615.81;;;8.29;74.87
10462;BME280;5278;42.656;23.374;2023-04-10T04:17:12;94685.28;;;8.98;75.00
10462;BME280;5278;42.656;23.374;2023-04-10T04:19:39;94688.19;;;9.03;74.94
10462;BME280;5278;42.656;23.374;2023-04-10T04:22:06;94711.34;;;9.13;74.50
10462;BME280;5278;42.656;23.374;2023-04-10T04:24:33;94608.41;;;8.50;74.47
10462;BME280;5278;42.656;23.374;2023-04-10T04:27:00;94690.91;;;9.18;74.93
10462;BME280;5278;42.656;23.374;2023-04-10T04:29:27;94693.69;;;9.24;74.99
10462;BME280;5278;42.656;23.374;2023-04-10T04:31:56;94685.25;;;9.30;75.17
10462;BME280;5278;42.656;23.374;2023-04-10T04:34:23;94698.16;;;9.46;74.55
10462;BME280;5278;42.656;23.374;2023-04-10T04:36:49;94689.22;;;9.65;74.08
10462;BME280;5278;42.656;23.374;2023-04-10T04:39:16;94692.22;;;9.77;73.44
10462;BME280;5278;42.656;23.374;2023-04-10T04:41:43;94685.56;;;9.90;72.65
10462;BME280;5278;42.656;23.374;2023-04-10T04:44:10;94688.53;;;10.10;72.13
10462;BME280;5278;42.656;23.374;2023-04-10T04:46:37;94696.75;;;10.30;70.71
10462;BME280;5278;42.656;23.374;2023-04-10T04:49:05;94692.34;;;10.30;70.64
10462;BME280;5278;42.656;23.374;2023-04-10T04:51:32;94692.25;;;10.47;69.90
10462;BME280;5278;42.656;23.374;2023-04-10T04:54:00;94693.03;;;10.55;69.22
10462;BME280;5278;42.656;23.374;2023-04-10T04:56:27;94689.84;;;10.68;69.11
10462;BME280;5278;42.656;23.374;2023-04-10T04:58:54;94709.00;;;10.90;68.34
10462;BME280;5278;42.656;23.374;2023-04-10T05:01:21;94704.06;;;11.17;67.20
10462;BME280;5278;42.656;23.374;2023-04-10T05:03:47;94699.16;;;11.37;66.30
10462;BME280;5278;42.656;23.374;2023-04-10T05:06:16;94706.94;;;11.60;65.43
10462;BME280;5278;42.656;23.374;2023-04-10T05:08:43;94706.59;;;11.78;65.10
10462;BME280;5278;42.656;23.374;2023-04-10T05:11:10;94704.78;;;12.07;64.27
10462;BME280;5278;42.656;23.374;2023-04-10T05:13:37;94711.28;;;12.33;61.80
10462;BME280;5278;42.656;23.374;2023-04-10T05:16:04;94730.50;;;12.46;60.81
10462;BME280;5278;42.656;23.374;2023-04-10T05:18:31;94709.03;;;12.66;60.70
10462;BME280;5278;42.656;23.374;2023-04-10T05:20:58;94704.91;;;12.71;60.14
10462;BME280;5278;42.656;23.374;2023-04-10T05:23:27;94710.19;;;12.99;59.03
10462;BME280;5278;42.656;23.374;2023-04-10T05:25:54;94704.22;;;13.26;58.22
10462;BME280;5278;42.656;23.374;2023-04-10T05:28:21;94690.72;;;13.44;56.52
10462;BME280;5278;42.656;23.374;2023-04-10T05:30:47;94697.72;;;13.71;55.34
10462;BME280;5278;42.656;23.374;2023-04-10T05:33:14;94689.09;;;14.12;54.41
10462;BME280;5278;42.656;23.374;2023-04-10T05:35:41;94681.25;;;14.59;52.38
10462;BME280;5278;42.656;23.374;2023-04-10T05:38:08;94689.78;;;15.07;50.54
10462;BME280;5278;42.656;23.374;2023-04-10T05:40:37;94686.38;;;15.27;49.40
10462;BME280;5278;42.656;23.374;2023-04-10T05:43:03;94688.78;;;15.28;49.40
10462;BME280;5278;42.656;23.374;2023-04-10T05:45:30;94694.22;;;15.46;48.53
10462;BME280;5278;42.656;23.374;2023-04-10T05:47:57;94695.63;;;15.42;48.79
10462;BME280;5278;42.656;23.374;2023-04-10T05:50:24;94596.38;;;15.08;47.94
10462;BME280;5278;42.656;23.374;2023-04-10T05:52:51;94686.56;;;15.78;47.24
10462;BME280;5278;42.656;23.374;2023-04-10T05:55:18;94667.56;;;15.89;46.50
10462;BME280;5278;42.656;23.374;2023-04-10T05:57:46;94695.97;;;16.05;46.27
10462;BME280;5278;42.656;23.374;2023-04-10T06:00:16;94694.19;;;15.86;46.39
10462;BME280;5278;42.656;23.374;2023-04-10T06:02:43;94606.06;;;15.14;46.89
10462;BME280;5278;42.656;23.374;2023-04-10T06:05:10;94695.03;;;15.47;47.51
10462;BME280;5278;42.656;23.374;2023-04-10T06:07:37;94699.06;;;15.23;47.87
10462;BME280;5278;42.656;23.374;2023-04-10T06:10:05;94702.25;;;14.92;48.89
10462;BME280;5278;42.656;23.374;2023-04-10T06:12:32;94704.63;;;14.68;49.78
10462;BME280;5278;42.656;23.374;2023-04-10T06:15:01;94708.75;;;14.42;50.38
10462;BME280;5278;42.656;23.374;2023-04-10T06:17:28;94696.59;;;14.28;52.63
10462;BME280;5278;42.656;23.374;2023-04-10T06:19:55;94627.00;;;13.66;52.31
10462;BME280;5278;42.656;23.374;2023-04-10T06:22:23;94699.22;;;14.28;51.53
10462;BME280;5278;42.656;23.374;2023-04-10T06:24:51;94698.00;;;14.24;51.84
10462;BME280;5278;42.656;23.374;2023-04-10T06:27:18;94697.50;;;14.07;52.08
10462;BME280;5278;42.656;23.374;2023-04-10T06:29:44;94693.88;;;13.67;53.59
10462;BME280;5278;42.656;23.374;2023-04-10T06:32:13;94696.78;;;13.51;54.14
10462;BME280;5278;42.656;23.374;2023-04-10T06:34:40;94662.88;;;13.23;54.41
10462;BME280;5278;42.656;23.374;2023-04-10T06:37:06;94696.41;;;13.54;54.30
10462;BME280;5278;42.656;23.374;2023-04-10T06:39:33;94608.56;;;12.84;54.51
10462;BME280;5278;42.656;23.374;2023-04-10T06:42:00;94608.81;;;12.68;54.54
10462;BME280;5278;42.656;23.374;2023-04-10T06:44:28;94692.69;;;13.14;55.13
10462;BME280;5278;42.656;23.374;2023-04-10T06:46:55;94714.03;;;13.03;55.67
10462;BME280;5278;42.656;23.374;2023-04-10T06:49:23;94716.66;;;13.03;55.94
10462;BME280;5278;42.656;23.374;2023-04-10T06:51:50;94716.81;;;13.02;55.93
10462;BME280;5278;42.656;23.374;2023-04-10T06:54:17;94700.56;;;13.00;56.01
10462;BME280;5278;42.656;23.374;2023-04-10T06:56:43;94706.78;;;12.99;56.63
10462;BME280;5278;42.656;23.374;2023-04-10T06:59:10;94714.41;;;13.00;56.51
10462;BME280;5278;42.656;23.374;2023-04-10T07:01:37;94714.41;;;13.00;56.63
10462;BME280;5278;42.656;23.374;2023-04-10T07:04:04;94708.97;;;12.95;56.03
10462;BME280;5278;42.656;23.374;2023-04-10T07:06:32;94717.69;;;13.09;56.04
10462;BME280;5278;42.656;23.374;2023-04-10T07:09:00;94712.47;;;13.09;55.69
10462;BME280;5278;42.656;23.374;2023-04-10T07:11:27;94722.28;;;13.07;55.85
10462;BME280;5278;42.656;23.374;2023-04-10T07:13:54;94719.44;;;13.02;56.01
10462;BME280;5278;42.656;23.374;2023-04-10T07:16:22;94710.13;;;12.92;56.40
10462;BME280;5278;42.656;23.374;2023-04-10T07:18:49;94604.19;;;12.06;56.49
10462;BME280;5278;42.656;23.374;2023-04-10T07:21:16;94723.78;;;12.73;57.28
10462;BME280;5278;42.656;23.374;2023-04-10T07:23:44;94715.19;;;12.58;58.27
10462;BME280;5278;42.656;23.374;2023-04-10T07:26:11;94722.50;;;12.48;58.43
10462;BME280;5278;42.656;23.374;2023-04-10T07:28:38;94727.84;;;12.25;59.02
10462;BME280;5278;42.656;23.374;2023-04-10T07:31:06;94725.75;;;12.21;59.88
10462;BME280;5278;42.656;23.374;2023-04-10T07:33:33;94704.88;;;11.99;60.28
10462;BME280;5278;42.656;23.374;2023-04-10T07:36:00;94725.88;;;12.13;60.58
10462;BME280;5278;42.656;23.374;2023-04-10T07:38:27;94731.91;;;12.13;60.40
10462;BME280;5278;42.656;23.374;2023-04-10T07:40:56;94730.25;;;12.27;60.34
10462;BME280;5278;42.656;23.374;2023-04-10T07:43:24;94736.25;;;12.42;59.64
10462;BME280;5278;42.656;23.374;2023-04-10T07:45:51;94731.63;;;12.59;59.29
10462;BME280;5278;42.656;23.374;2023-04-10T07:48:18;94726.13;;;12.68;58.75
10462;BME280;5278;42.656;23.374;2023-04-10T07:50:45;94729.50;;;12.83;57.70
10462;BME280;5278;42.656;23.374;2023-04-10T07:53:12;94719.69;;;13.07;57.74
10462;BME280;5278;42.656;23.374;2023-04-10T07:55:40;94716.09;;;13.29;56.09
10462;BME280;5278;42.656;23.374;2023-04-10T07:58:08;94723.16;;;13.35;55.50
10462;BME280;5278;42.656;23.374;2023-04-10T08:00:35;94717.84;;;13.22;55.88
10462;BME280;5278;42.656;23.374;2023-04-10T08:03:03;94718.97;;;13.13;56.33
10462;BME280;5278;42.656;23.374;2023-04-10T08:05:30;94725.06;;;13.05;56.86
10462;BME280;5278;42.656;23.374;2023-04-10T08:07:57;94722.78;;;12.95;57.36
10462;BME280;5278;42.656;23.374;2023-04-10T08:10:24;94719.41;;;12.80;57.84
10462;BME280;5278;42.656;23.374;2023-04-10T08:12:51;94721.16;;;12.73;58.78
10462;BME280;5278;42.656;23.374;2023-04-10T08:15:19;94717.94;;;12.71;58.67
10462;BME280;5278;42.656;23.374;2023-04-10T08:17:46;94716.22;;;12.78;58.47
10462;BME280;5278;42.656;23.374;2023-04-10T08:20:13;94721.22;;;13.01;58.21
10462;BME280;5278;42.656;23.374;2023-04-10T08:22:40;94714.84;;;13.04;57.53
10462;BME280;5278;42.656;23.374;2023-04-10T08:25:07;94728.69;;;13.25;57.24
10462;BME280;5278;42.656;23.374;2023-04-10T08:27:34;94726.88;;;13.47;56.02
10462;BME280;5278;42.656;23.374;2023-04-10T08:30:01;94706.00;;;13.47;55.75
10462;BME280;5278;42.656;23.374;2023-04-10T08:32:29;94714.06;;;13.52;55.72
10462;BME280;5278;42.656;23.374;2023-04-10T08:34:56;94711.69;;;13.57;55.70
10462;BME280;5278;42.656;23.374;2023-04-10T08:37:24;94716.16;;;13.63;55.62
10462;BME280;5278;42.656;23.374;2023-04-10T08:39:51;94715.28;;;13.56;55.84
10462;BME280;5278;42.656;23.374;2023-04-10T08:42:18;94722.28;;;13.49;56.31
10462;BME280;5278;42.656;23.374;2023-04-10T08:44:47;94719.78;;;13.41;56.14
10462;BME280;5278;42.656;23.374;2023-04-10T08:47:17;94704.19;;;13.20;56.72
10462;BME280;5278;42.656;23.374;2023-04-10T08:49:53;94716.59;;;13.18;56.24
10462;BME280;5278;42.656;23.374;2023-04-10T08:52:21;94722.19;;;12.93;56.85
10462;BME280;5278;42.656;23.374;2023-04-10T08:54:53;94718.13;;;12.70;57.70
10462;BME280;5278;42.656;23.374;2023-04-10T08:57:21;94736.56;;;12.68;58.15
10462;BME280;5278;42.656;23.374;2023-04-10T08:59:49;94640.50;;;11.93;57.33
10462;BME280;5278;42.656;23.374;2023-04-10T09:02:16;94709.38;;;12.41;57.94
10462;BME280;5278;42.656;23.374;2023-04-10T09:04:48;94715.56;;;12.55;57.95
10462;BME280;5278;42.656;23.374;2023-04-10T09:07:15;94714.63;;;12.63;57.30
10462;BME280;5278;42.656;23.374;2023-04-10T09:09:43;94699.56;;;12.58;58.08
10462;BME280;5278;42.656;23.374;2023-04-10T09:12:11;94697.59;;;12.45;57.80
10462;BME280;5278;42.656;23.374;2023-04-10T09:14:40;94707.41;;;12.43;57.51
10462;BME280;5278;42.656;23.374;2023-04-10T09:17:15;94703.06;;;12.29;58.40
10462;BME280;5278;42.656;23.374;2023-04-10T09:19:43;94707.19;;;12.24;58.49
10462;BME280;5278;42.656;23.374;2023-04-10T09:22:12;94707.91;;;12.18;59.15
10462;BME280;5278;42.656;23.374;2023-04-10T09:24:41;94702.81;;;12.10;59.56
10462;BME280;5278;42.656;23.374;2023-04-10T09:27:08;94704.13;;;12.05;59.23
10462;BME280;5278;42.656;23.374;2023-04-10T09:29:41;94693.25;;;12.17;58.32
10462;BME280;5278;42.656;23.374;2023-04-10T09:32:08;94696.13;;;12.22;58.67
10462;BME280;5278;42.656;23.374;2023-04-10T09:34:51;94700.72;;;12.20;58.39
10462;BME280;5278;42.656;23.374;2023-04-10T09:37:19;94696.50;;;12.19;59.30
10462;BME280;5278;42.656;23.374;2023-04-10T09:39:47;94692.66;;;12.15;60.29
10462;BME280;5278;42.656;23.374;2023-04-10T09:42:14;94697.94;;;12.06;60.80
10462;BME280;5278;42.656;23.374;2023-04-10T09:44:41;94692.13;;;12.04;62.43
10462;BME280;5278;42.656;23.374;2023-04-10T09:47:15;94669.78;;;12.10;60.91
10462;BME280;5278;42.656;23.374;2023-04-10T09:49:46;94689.44;;;12.48;60.53
10462;BME280;5278;42.656;23.374;2023-04-10T09:52:20;94688.50;;;12.77;59.25
10462;BME280;5278;42.656;23.374;2023-04-10T09:54:47;94610.84;;;12.45;57.58
10462;BME280;5278;42.656;23.374;2023-04-10T09:57:16;94684.66;;;13.16;56.16
10462;BME280;5278;42.656;23.374;2023-04-10T09:59:47;94678.53;;;13.30;54.64
10462;BME280;5278;42.656;23.374;2023-04-10T10:02:16;94676.09;;;13.22;53.65
10462;BME280;5278;42.656;23.374;2023-04-10T10:04:44;94677.84;;;13.15;53.63
10462;BME280;5278;42.656;23.374;2023-04-10T10:07:13;94669.75;;;13.10;53.47
10462;BME280;5278;42.656;23.374;2023-04-10T10:09:42;94634.22;;;12.60;52.59
10462;BME280;5278;42.656;23.374;2023-04-10T10:12:10;94668.19;;;13.15;52.69
10462;BME280;5278;42.656;23.374;2023-04-10T10:14:44;94669.38;;;13.34;51.99
10462;BME280;5278;42.656;23.374;2023-04-10T10:17:14;94660.53;;;13.35;51.64
10462;BME280;5278;42.656;23.374;2023-04-10T10:19:52;94663.25;;;13.48;51.69
10462;BME280;5278;42.656;23.374;2023-04-10T10:22:24;94659.09;;;13.60;50.85
10462;BME280;5278;42.656;23.374;2023-04-10T10:24:55;94636.75;;;13.51;50.71
10462;BME280;5278;42.656;23.374;2023-04-10T10:27:23;94648.28;;;13.63;50.37
10462;BME280;5278;42.656;23.374;2023-04-10T10:29:53;94649.91;;;14.12;48.86
10462;BME280;5278;42.656;23.374;2023-04-10T10:32:20;94648.22;;;14.45;47.57
10462;BME280;5278;42.656;23.374;2023-04-10T10:34:50;94635.78;;;14.60;47.18
10462;BME280;5278;42.656;23.374;2023-04-10T10:37:18;94628.53;;;14.56;47.56
10462;BME280;5278;42.656;23.374;2023-04-10T10:39:51;94629.97;;;14.65;47.35
10462;BME280;5278;42.656;23.374;2023-04-10T10:42:28;94619.50;;;14.65;47.18
10462;BME280;5278;42.656;23.374;2023-04-10T10:45:03;94623.47;;;14.41;47.66
10462;BME280;5278;42.656;23.374;2023-04-10T10:47:33;94614.00;;;14.34;47.78
10462;BME280;5278;42.656;23.374;2023-04-10T10:50:05;94620.22;;;14.33;48.55
10462;BME280;5278;42.656;23.374;2023-04-10T10:52:42;94619.50;;;14.52;48.06
10462;BME280;5278;42.656;23.374;2023-04-10T10:55:31;94612.09;;;14.69;46.82
10462;BME280;5278;42.656;23.374;2023-04-10T10:58:03;94610.22;;;15.35;45.48
10462;BME280;5278;42.656;23.374;2023-04-10T11:01:05;94597.59;;;17.28;40.64
10462;BME280;5278;42.656;23.374;2023-04-10T11:03:35;94583.16;;;19.11;36.89
10462;BME280;5278;42.656;23.374;2023-04-10T11:06:03;94573.25;;;20.40;34.41
10462;BME280;5278;42.656;23.374;2023-04-10T11:08:36;94570.97;;;21.22;32.29
10462;BME280;5278;42.656;23.374;2023-04-10T11:11:08;94564.31;;;21.74;31.33
10462;BME280;5278;42.656;23.374;2023-04-10T11:13:37;94551.47;;;22.26;30.73
10462;BME280;5278;42.656;23.374;2023-04-10T11:16:06;94558.13;;;22.07;30.80
10462;BME280;5278;42.656;23.374;2023-04-10T11:19:03;94560.38;;;21.05;31.80
10462;BME280;5278;42.656;23.374;2023-04-10T11:21:30;94563.59;;;20.05;32.59
10462;BME280;5278;42.656;23.374;2023-04-10T11:24:03;94554.53;;;19.61;33.40
10462;BME280;5278;42.656;23.374;2023-04-10T11:26:39;94545.91;;;18.96;34.38
10462;BME280;5278;42.656;23.374;2023-04-10T11:29:34;94565.28;;;18.00;36.94
10462;BME280;5278;42.656;23.374;2023-04-10T11:32:02;94569.66;;;16.84;40.01
10462;BME280;5278;42.656;23.374;2023-04-10T11:34:30;94567.03;;;16.21;41.61
10462;BME280;5278;42.656;23.374;2023-04-10T11:36:59;94563.59;;;16.59;41.52
10462;BME280;5278;42.656;23.374;2023-04-10T11:39:29;94548.59;;;17.15;39.97
10462;BME280;5278;42.656;23.374;2023-04-10T11:41:56;94559.06;;;17.22;39.74
10462;BME280;5278;42.656;23.374;2023-04-10T11:44:27;94571.88;;;17.12;39.64
10462;BME280;5278;42.656;23.374;2023-04-10T11:46:57;94572.44;;;17.14;39.43
10462;BME280;5278;42.656;23.374;2023-04-10T11:49:25;94572.19;;;17.22;38.76
10462;BME280;5278;42.656;23.374;2023-04-10T11:51:52;94554.44;;;17.60;38.41
10462;BME280;5278;42.656;23.374;2023-04-10T11:54:21;94556.66;;;17.39;39.15
10462;BME280;5278;42.656;23.374;2023-04-10T11:56:57;94563.84;;;16.82;40.37
10462;BME280;5278;42.656;23.374;2023-04-10T11:59:24;94566.63;;;16.56;40.66
10462;BME280;5278;42.656;23.374;2023-04-10T12:01:52;94565.16;;;15.97;40.57
10462;BME280;5278;42.656;23.374;2023-04-10T12:04:22;94566.91;;;15.45;42.14
10462;BME280;5278;42.656;23.374;2023-04-10T12:06:50;94570.13;;;15.47;42.26
10462;BME280;5278;42.656;23.374;2023-04-10T12:09:19;94565.00;;;15.08;43.80
10462;BME280;5278;42.656;23.374;2023-04-10T12:11:50;94561.56;;;14.75;45.85
10462;BME280;5278;42.656;23.374;2023-04-10T12:14:19;94565.59;;;14.44;48.10
10462;BME280;5278;42.656;23.374;2023-04-10T12:16:46;94560.66;;;14.08;53.04
10462;BME280;5278;42.656;23.374;2023-04-10T12:19:14;94577.78;;;13.63;57.03
10462;BME280;5278;42.656;23.374;2023-04-10T12:21:44;94598.13;;;13.40;58.80
10462;BME280;5278;42.656;23.374;2023-04-10T12:24:12;94566.25;;;13.45;59.27
10462;BME280;5278;42.656;23.374;2023-04-10T12:26:46;94576.34;;;13.54;59.49
10462;BME280;5278;42.656;23.374;2023-04-10T12:29:14;94555.81;;;13.45;59.53
10462;BME280;5278;42.656;23.374;2023-04-10T12:31:41;94589.09;;;13.77;60.13
10462;BME280;5278;42.656;23.374;2023-04-10T12:34:07;94578.41;;;13.72;61.71
10462;BME280;5278;42.656;23.374;2023-04-10T12:36:35;94584.94;;;13.48;62.66
10462;BME280;5278;42.656;23.374;2023-04-10T12:39:03;94576.28;;;13.48;63.77
10462;BME280;5278;42.656;23.374;2023-04-10T12:41:32;94573.09;;;13.52;62.42
10462;BME280;5278;42.656;23.374;2023-04-10T12:44:06;94487.63;;;13.13;61.62
10462;BME280;5278;42.656;23.374;2023-04-10T12:46:34;94578.91;;;13.89;58.64
10462;BME280;5278;42.656;23.374;2023-04-10T12:49:08;94569.72;;;14.26;55.47
10462;BME280;5278;42.656;23.374;2023-04-10T12:51:43;94394.63;;;12.99;52.92
10462;BME280;5278;42.656;23.374;2023-04-10T12:54:25;94568.00;;;14.39;53.91
10462;BME280;5278;42.656;23.374;2023-04-10T12:56:52;94571.13;;;14.08;55.50
10462;BME280;5278;42.656;23.374;2023-04-10T12:59:20;94542.00;;;14.31;55.34
10462;BME280;5278;42.656;23.374;2023-04-10T13:01:47;94550.50;;;14.53;53.35
10462;BME280;5278;42.656;23.374;2023-04-10T13:04:14;94559.75;;;14.75;53.73
10462;BME280;5278;42.656;23.374;2023-04-10T13:06:42;94547.09;;;14.98;53.57
10462;BME280;5278;42.656;23.374;2023-04-10T13:09:10;94553.69;;;15.21;52.03
10462;BME280;5278;42.656;23.374;2023-04-10T13:11:38;94540.41;;;15.22;52.02
10462;BME280;5278;42.656;23.374;2023-04-10T13:14:05;94544.63;;;15.23;51.48